Terminal Aerodrome Forecast
Issued by NWS

Home | Current Version | Previous Version | Graphics & Text | Print | Product List | Glossary Off
Versions: 1 2 3 4 5 6 7 8 9 10 11 12 13 14

000
FTUS42 KMHX 012300 RRA
TAFOAJ
TAF
KOAJ 012348Z 0200/0224 17005KT P6SM BKN150
     FM020300 17010KT P6SM OVC040
     FM020600 20010G15KT 5SM -RA OVC020
     FM021200 22018G25KT 5SM -RA SCT007 OVC015
     FM021800 28017G27KT P6SM SCT040
      AMD LTD TO CLD VIS AND WIND=

USA.gov is the U.S. government's official web portal to all federal, state and local government web resources and services.